Terminal Aerodrome Forecast
Issued by NWS Brownsville, TX

Home | Current Version | Previous Version | Text Only | Print | Product List | Glossary On
Versions: 1 2 3 4 5 6 7 8 9 10 11 12 13 14 15 16 17
000
FTUS44 KBRO 310530
TAFMFE
TAF
KMFE 310530Z 3106/0106 09012KT P6SM FEW025 BKN060
     FM310900 14006KT 5SM BR BKN015
     FM311200 15005KT 3SM BR SCT010 BKN060
     FM311700 14020G26KT P6SM OVC050=

USA.gov is the U.S. government's official web portal to all federal, state and local government web resources and services.